createdAt,value
2018-04-19T00:03:57.839Z,101001.50
2018-04-19T00:06:37.858Z,100996.86
2018-04-19T00:09:16.211Z,101008.38
2018-04-19T00:11:54.830Z,100997.66
2018-04-19T00:14:37.006Z,100996.23
2018-04-19T00:17:16.202Z,100992.03
2018-04-19T00:19:59.272Z,100991.20
2018-04-19T00:22:37.839Z,100990.64
2018-04-19T00:25:17.016Z,100989.08
2018-04-19T00:27:57.734Z,100991.70
2018-04-19T00:30:36.368Z,100986.56
2018-04-19T00:33:15.856Z,100986.09
2018-04-19T00:35:56.326Z,100984.69
2018-04-19T00:38:34.976Z,100980.80
2018-04-19T00:41:13.710Z,100983.94
2018-04-19T00:43:53.317Z,100976.75
2018-04-19T00:46:31.751Z,100981.14
2018-04-19T00:49:10.356Z,100980.81
2018-04-19T00:51:49.098Z,100982.48
2018-04-19T00:54:27.733Z,100982.98
2018-04-19T00:57:06.596Z,100973.89
2018-04-19T00:59:45.199Z,100977.08
2018-04-19T01:02:23.599Z,100983.17
2018-04-19T01:05:02.170Z,100980.27
2018-04-19T01:07:44.471Z,100979.73
2018-04-19T01:10:23.370Z,100984.52
2018-04-19T01:13:02.659Z,100978.23
2018-04-19T01:15:41.779Z,100982.55
2018-04-19T01:18:21.170Z,100983.61
2018-04-19T01:21:04.429Z,100979.10
2018-04-19T01:23:42.991Z,100981.90
2018-04-19T01:26:23.615Z,100980.22
2018-04-19T01:29:07.256Z,100980.11
2018-04-19T01:31:45.905Z,100977.25
2018-04-19T01:34:27.232Z,100971.75
2018-04-19T01:37:06.968Z,100979.64
2018-04-19T01:39:45.408Z,100975.91
2018-04-19T01:42:26.566Z,100965.65
2018-04-19T01:45:05.150Z,100969.77
2018-04-19T01:47:43.922Z,100976.23
2018-04-19T01:50:23.682Z,100978.17
2018-04-19T01:53:03.131Z,100975.06
2018-04-19T01:55:42.701Z,100975.38
2018-04-19T01:58:21.289Z,100981.56
2018-04-19T02:01:00.114Z,100977.74
2018-04-19T02:03:39.353Z,100978.04
2018-04-19T02:06:18.602Z,100976.09
2018-04-19T02:08:56.989Z,100978.12
2018-04-19T02:11:36.122Z,100975.10
2018-04-19T02:14:15.495Z,100974.95
2018-04-19T02:16:54.858Z,100971.84
2018-04-19T02:19:38.235Z,100972.79
2018-04-19T02:22:17.889Z,100978.15
2018-04-19T02:24:56.191Z,100973.72
2018-04-19T02:27:35.330Z,100974.85
2018-04-19T02:30:13.398Z,100975.44
2018-04-19T02:32:51.841Z,100970.73
2018-04-19T02:35:34.077Z,100970.25
2018-04-19T02:38:13.443Z,100968.19
2018-04-19T02:40:51.702Z,100973.38
2018-04-19T02:43:32.783Z,100966.81
2018-04-19T02:46:11.173Z,100962.00
2018-04-19T02:48:49.879Z,100963.94
2018-04-19T02:51:28.591Z,100952.72
2018-04-19T02:54:07.134Z,100951.60
2018-04-19T02:56:46.747Z,100948.69
2018-04-19T02:59:26.144Z,100951.52
2018-04-19T03:02:05.227Z,100950.70
2018-04-19T03:04:43.664Z,100944.84
2018-04-19T03:07:28.231Z,100946.57
2018-04-19T03:10:07.037Z,100949.11
2018-04-19T03:12:46.549Z,100947.50
2018-04-19T03:15:25.417Z,100946.59
2018-04-19T03:18:04.786Z,100942.45
2018-04-19T03:20:43.656Z,100940.05
2018-04-19T03:23:23.040Z,100937.17
2018-04-19T03:26:01.520Z,100937.91
2018-04-19T03:28:40.579Z,100937.88
2018-04-19T03:31:22.630Z,100934.89
2018-04-19T03:34:02.054Z,100936.27
2018-04-19T03:36:41.467Z,100936.50
2018-04-19T03:39:23.525Z,100928.96
2018-04-19T03:42:02.088Z,100929.55
2018-04-19T03:44:40.678Z,100934.41
2018-04-19T03:47:23.401Z,100933.20
2018-04-19T03:50:02.793Z,100934.09
2018-04-19T03:52:41.496Z,100928.94
2018-04-19T03:55:23.220Z,100929.86
2018-04-19T03:58:01.784Z,100929.25
2018-04-19T04:00:40.887Z,100932.23
2018-04-19T04:03:25.612Z,100930.17
2018-04-19T04:06:03.873Z,100927.99
2018-04-19T04:08:42.308Z,100932.08
2018-04-19T04:11:26.939Z,100922.38
2018-04-19T04:14:06.350Z,100921.13
2018-04-19T04:18:14.215Z,100927.38
2018-04-19T04:21:22.138Z,100924.50
2018-04-19T04:24:03.899Z,100925.22
2018-04-19T04:26:45.519Z,100921.24
2018-04-19T04:29:25.164Z,100920.05
2018-04-19T04:32:03.854Z,100919.09
2018-04-19T04:34:44.119Z,100920.81
2018-04-19T04:37:25.633Z,100903.78
2018-04-19T04:40:06.713Z,100926.41
2018-04-19T04:42:48.611Z,100926.91
2018-04-19T04:45:28.752Z,100920.78
2018-04-19T04:48:14.460Z,100920.02
2018-04-19T04:50:52.952Z,100930.70
2018-04-19T04:53:33.989Z,100924.92
2018-04-19T04:56:13.050Z,100921.80
2018-04-19T04:58:51.378Z,100926.13
2018-04-19T05:01:33.593Z,100926.38
2018-04-19T05:04:12.894Z,100921.89
2018-04-19T05:06:54.987Z,100928.83
2018-04-19T05:09:33.228Z,100926.55
2018-04-19T05:12:11.840Z,100928.69
2018-04-19T05:14:56.188Z,100924.83
2018-04-19T05:17:34.659Z,100931.83
2018-04-19T05:20:14.305Z,100927.12
2018-04-19T05:22:56.602Z,100936.55
2018-04-19T05:25:34.980Z,100935.02
2018-04-19T05:28:15.451Z,100933.55
2018-04-19T05:30:55.328Z,100941.13
2018-04-19T05:33:33.645Z,100935.52
2018-04-19T05:36:18.985Z,100936.09
2018-04-19T05:38:57.961Z,100931.38
2018-04-19T05:41:41.765Z,100932.98
2018-04-19T05:44:19.980Z,100935.27
2018-04-19T05:46:58.856Z,100938.06
2018-04-19T05:49:44.773Z,100941.67
2018-04-19T05:52:34.909Z,100942.56
2018-04-19T05:55:18.705Z,100941.63
2018-04-19T05:57:59.566Z,100946.14
2018-04-19T06:00:41.201Z,100949.27
2018-04-19T06:03:23.043Z,100952.75
2018-04-19T06:06:01.384Z,100948.63
2018-04-19T06:08:43.068Z,100950.04
2018-04-19T06:11:21.857Z,100953.66
2018-04-19T06:14:11.045Z,100953.94
2018-04-19T06:16:55.434Z,100951.20
2018-04-19T06:19:39.416Z,100953.06
2018-04-19T06:22:21.494Z,100955.41
2018-04-19T06:25:01.351Z,100958.20
2018-04-19T06:27:43.887Z,100954.08
2018-04-19T06:30:22.823Z,100958.20
2018-04-19T06:33:01.449Z,100960.72
2018-04-19T06:35:43.093Z,100956.20
2018-04-19T06:38:22.134Z,100962.03
2018-04-19T06:43:59.572Z,100950.09
2018-04-19T06:46:47.486Z,100955.41
2018-04-19T06:49:26.054Z,100956.44
2018-04-19T06:52:07.477Z,100958.98
2018-04-19T06:54:48.714Z,100958.50
2018-04-19T06:57:27.891Z,100955.52
2018-04-19T07:00:10.127Z,100957.66
2018-04-19T07:02:49.185Z,100946.54
2018-04-19T07:05:28.613Z,100948.92
2018-04-19T07:08:08.727Z,100949.42
2018-04-19T07:10:48.128Z,100953.88
2018-04-19T07:13:26.511Z,100953.42
2018-04-19T07:16:08.485Z,100943.40
2018-04-19T07:18:47.965Z,100943.92
2018-04-19T07:21:26.302Z,100949.39
2018-04-19T07:24:10.630Z,100948.59
2018-04-19T07:26:49.153Z,100948.31
2018-04-19T07:29:27.724Z,100946.03
2018-04-19T07:32:09.423Z,100943.59
2018-04-19T07:34:48.434Z,100942.35
2018-04-19T07:37:31.502Z,100939.93
2018-04-19T07:40:09.948Z,100940.57
2018-04-19T07:42:50.447Z,100940.51
2018-04-19T07:45:29.861Z,100942.44
2018-04-19T07:48:09.816Z,100941.34
2018-04-19T07:50:52.464Z,100941.87
2018-04-19T07:53:30.824Z,100940.44
2018-04-19T07:56:11.792Z,100943.00
2018-04-19T07:58:50.964Z,100937.77
2018-04-19T08:01:35.839Z,100935.37
2018-04-19T08:04:14.525Z,100937.49
2018-04-19T08:06:52.776Z,100941.28
2018-04-19T08:09:34.593Z,100934.27
2018-04-19T08:12:12.894Z,100931.83
2018-04-19T08:14:53.782Z,100933.62
2018-04-19T08:17:34.484Z,100931.56
2018-04-19T08:20:14.953Z,100925.14
2018-04-19T08:22:57.973Z,100931.14
2018-04-19T08:25:36.429Z,100924.79
2018-04-19T08:28:16.516Z,100927.06
2018-04-19T08:30:56.889Z,100933.07
2018-04-19T08:33:35.341Z,100925.99
2018-04-19T08:36:14.663Z,100929.19
2018-04-19T08:38:57.892Z,100933.69
2018-04-19T08:41:35.881Z,100933.52
2018-04-19T08:44:17.179Z,100923.86
2018-04-19T08:46:57.344Z,100925.15
2018-04-19T08:49:38.176Z,100929.14
2018-04-19T08:52:19.491Z,100923.11
2018-04-19T08:54:57.835Z,100924.64
2018-04-19T08:57:40.529Z,100933.73
2018-04-19T09:00:19.655Z,100926.58
2018-04-19T09:02:58.081Z,100925.23
2018-04-19T09:05:39.374Z,100923.31
2018-04-19T09:08:20.297Z,100919.34
2018-04-19T09:10:59.765Z,100922.00
2018-04-19T09:13:43.875Z,100916.38
2018-04-19T09:16:22.654Z,100917.82
2018-04-19T09:19:03.051Z,100915.59
2018-04-19T09:21:44.555Z,100914.05
2018-04-19T09:24:22.757Z,100909.64
2018-04-19T09:27:02.929Z,100913.42
2018-04-19T09:29:43.832Z,100908.19
2018-04-19T09:32:22.497Z,100915.84
2018-04-19T09:35:04.118Z,100906.92
2018-04-19T09:37:43.652Z,100905.64
2018-04-19T09:40:23.752Z,100907.17
2018-04-19T09:43:09.019Z,100901.25
2018-04-19T09:45:47.917Z,100903.11
2018-04-19T09:48:29.294Z,100897.48
2018-04-19T09:51:08.699Z,100891.03
2018-04-19T09:53:47.424Z,100891.73
2018-04-19T09:56:29.756Z,100890.20
2018-04-19T09:59:14.046Z,100887.59
2018-04-19T10:01:52.638Z,100865.39
2018-04-19T10:04:31.361Z,100884.40
2018-04-19T10:07:10.526Z,100876.12
2018-04-19T10:09:49.505Z,100877.63
2018-04-19T10:12:31.117Z,100885.11
2018-04-19T10:15:09.463Z,100873.67
2018-04-19T10:17:49.817Z,100867.19
2018-04-19T10:20:33.934Z,100873.12
2018-04-19T10:23:12.351Z,100850.09
2018-04-19T10:25:51.818Z,100864.13
2018-04-19T10:28:34.683Z,100860.17
2018-04-19T10:31:13.044Z,100854.23
2018-04-19T10:33:51.318Z,100851.80
2018-04-19T10:36:33.376Z,100849.18
2018-04-19T10:39:13.180Z,100848.08
2018-04-19T10:41:52.348Z,100850.28
2018-04-19T10:44:33.340Z,100844.38
2018-04-19T10:47:11.979Z,100842.06
2018-04-19T10:49:51.150Z,100832.73
2018-04-19T10:52:33.646Z,100835.61
2018-04-19T10:55:12.069Z,100828.52
2018-04-19T10:57:55.543Z,100823.66
2018-04-19T11:00:34.616Z,100828.63
2018-04-19T11:03:19.430Z,100825.39
2018-04-19T11:05:58.120Z,100828.06
2018-04-19T11:08:37.410Z,100827.69
2018-04-19T11:11:16.880Z,100821.60
2018-04-19T11:14:00.354Z,100819.78
2018-04-19T11:16:40.741Z,100827.59
2018-04-19T11:19:22.848Z,100812.64
2018-04-19T11:22:01.975Z,100811.84
2018-04-19T11:24:41.111Z,100805.94
2018-04-19T11:27:28.227Z,100814.36
2018-04-19T11:30:11.081Z,100808.52
2018-04-19T11:32:59.629Z,100809.15
2018-04-19T11:35:38.792Z,100806.21
2018-04-19T11:38:19.051Z,100804.31
2018-04-19T11:41:01.232Z,100799.67
2018-04-19T11:43:41.077Z,100802.84
2018-04-19T11:46:23.488Z,100803.56
2018-04-19T11:49:02.062Z,100794.02
2018-04-19T11:51:40.668Z,100792.13
2018-04-19T11:54:25.472Z,100801.84
2018-04-19T11:57:06.832Z,100793.02
2018-04-19T11:59:45.113Z,100791.31
2018-04-19T12:02:26.693Z,100796.73
2018-04-19T12:05:08.942Z,100793.45
2018-04-19T12:10:41.174Z,100783.51
2018-04-19T12:13:25.728Z,100790.23
2018-04-19T12:16:08.363Z,100788.91
2018-04-19T12:18:47.497Z,100781.74
2018-04-19T12:21:35.193Z,100782.98
2018-04-19T12:27:08.307Z,100777.56
2018-04-19T12:29:49.077Z,100775.68
2018-04-19T12:32:27.623Z,100772.51
2018-04-19T12:35:08.587Z,100780.55
2018-04-19T12:37:47.603Z,100767.45
2018-04-19T12:40:27.893Z,100756.27
2018-04-19T12:43:06.181Z,100766.59
2018-04-19T12:45:46.713Z,100766.11
2018-04-19T12:48:27.032Z,100758.23
2018-04-19T12:51:07.061Z,100760.96
2018-04-19T12:53:46.517Z,100762.77
2018-04-19T12:56:30.388Z,100765.70
2018-04-19T12:59:09.541Z,100764.86
2018-04-19T13:01:48.127Z,100758.17
2018-04-19T13:04:30.721Z,100754.34
2018-04-19T13:07:11.946Z,100751.23
2018-04-19T13:09:51.330Z,100749.61
2018-04-19T13:12:33.417Z,100749.03
2018-04-19T13:15:13.458Z,100738.02
2018-04-19T13:17:51.866Z,100733.72
2018-04-19T13:20:34.524Z,100733.36
2018-04-19T13:23:13.570Z,100733.13
2018-04-19T13:25:52.044Z,100731.72
2018-04-19T13:28:34.776Z,100732.93
2018-04-19T13:31:13.313Z,100727.66
2018-04-19T13:33:52.436Z,100728.80
2018-04-19T13:36:35.310Z,100719.22
2018-04-19T13:39:13.552Z,100713.09
2018-04-19T13:41:53.959Z,100719.42
2018-04-19T13:44:37.011Z,100709.41
2018-04-19T13:47:15.223Z,100711.43
2018-04-19T13:49:56.953Z,100706.16
2018-04-19T13:52:35.716Z,100693.80
2018-04-19T13:55:14.246Z,100688.13
2018-04-19T13:57:56.705Z,100686.06
2018-04-19T14:00:37.706Z,100680.20
2018-04-19T14:03:17.080Z,100680.45
2018-04-19T14:05:59.344Z,100679.04
2018-04-19T14:08:37.925Z,100675.99
2018-04-19T14:11:18.220Z,100669.68
2018-04-19T14:14:02.408Z,100667.49
2018-04-19T14:16:41.899Z,100664.58
2018-04-19T14:19:23.461Z,100659.12
2018-04-19T14:22:02.416Z,100659.38
2018-04-19T14:24:40.552Z,100654.02
2018-04-19T14:27:30.915Z,100649.02
2018-04-19T14:30:18.331Z,100647.55
2018-04-19T14:33:00.518Z,100642.77
2018-04-19T14:35:39.392Z,100637.55
2018-04-19T14:38:21.499Z,100637.37
2018-04-19T14:40:59.928Z,100642.51
2018-04-19T14:43:40.639Z,100640.59
2018-04-19T14:46:20.535Z,100636.45
2018-04-19T14:49:01.831Z,100634.33
2018-04-19T14:51:42.578Z,100636.48
2018-04-19T14:54:23.257Z,100638.80
2018-04-19T14:57:02.673Z,100638.89
2018-04-19T14:59:44.804Z,100637.47
2018-04-19T15:02:24.735Z,100638.55
2018-04-19T15:05:03.313Z,100634.93
2018-04-19T15:07:47.000Z,100627.25
2018-04-19T15:10:25.648Z,100632.89
2018-04-19T15:13:07.000Z,100633.95
2018-04-19T15:15:45.441Z,100633.77
2018-04-19T15:18:25.210Z,100632.16
2018-04-19T15:21:06.006Z,100627.53
2018-04-19T15:23:45.572Z,100628.02
2018-04-19T15:26:29.157Z,100628.52
2018-04-19T15:29:08.656Z,100623.84
2018-04-19T15:31:47.169Z,100618.90
2018-04-19T15:34:30.945Z,100620.82
2018-04-19T15:37:10.078Z,100622.28
2018-04-19T15:39:48.535Z,100612.17
2018-04-19T15:42:33.704Z,100615.16
2018-04-19T15:45:12.112Z,100618.69
2018-04-19T15:47:50.180Z,100620.88
2018-04-19T15:50:31.470Z,100619.67
2018-04-19T15:53:10.666Z,100617.87
2018-04-19T15:55:48.940Z,100614.77
2018-04-19T15:58:32.612Z,100613.77
2018-04-19T16:01:11.469Z,100614.64
2018-04-19T16:03:50.543Z,100613.36
2018-04-19T16:06:33.408Z,100613.55
2018-04-19T16:09:13.617Z,100613.34
2018-04-19T16:11:53.083Z,100613.06
2018-04-19T16:14:35.125Z,100609.20
2018-04-19T16:17:13.892Z,100603.64
2018-04-19T16:19:53.755Z,100600.03
2018-04-19T16:22:34.962Z,100598.30
2018-04-19T16:25:14.292Z,100599.44
2018-04-19T16:27:56.577Z,100597.51
2018-04-19T16:30:35.532Z,100599.30
2018-04-19T16:33:14.035Z,100598.02
2018-04-19T16:36:01.311Z,100591.12
2018-04-19T16:38:39.994Z,100594.31
2018-04-19T16:41:20.112Z,100599.45
2018-04-19T16:44:01.783Z,100594.84
2018-04-19T16:46:40.144Z,100596.66
2018-04-19T16:49:19.808Z,100601.44
2018-04-19T16:52:04.177Z,100597.03
2018-04-19T16:54:42.752Z,100594.30
2018-04-19T16:57:21.805Z,100590.22
2018-04-19T17:00:04.564Z,100587.42
2018-04-19T17:02:45.256Z,100590.23
2018-04-19T17:05:24.528Z,100586.53
2018-04-19T17:08:05.846Z,100584.38
2018-04-19T17:10:44.445Z,100584.06
2018-04-19T17:13:23.602Z,100580.12
2018-04-19T17:16:04.875Z,100587.52
2018-04-19T17:18:43.256Z,100581.97
2018-04-19T17:21:21.819Z,100582.51
2018-04-19T17:24:03.375Z,100578.36
2018-04-19T17:26:41.750Z,100575.11
2018-04-19T17:29:20.629Z,100575.30
2018-04-19T17:32:02.810Z,100577.95
2018-04-19T17:34:42.204Z,100581.94
2018-04-19T17:37:20.426Z,100575.06
2018-04-19T17:40:04.108Z,100567.75
2018-04-19T17:42:43.501Z,100576.50
2018-04-19T17:45:22.152Z,100570.50
2018-04-19T17:48:06.253Z,100577.77
2018-04-19T17:50:45.727Z,100573.30
2018-04-19T17:53:24.299Z,100576.16
2018-04-19T17:56:06.819Z,100578.73
2018-04-19T17:58:50.035Z,100574.77
2018-04-19T18:01:29.252Z,100575.45
2018-04-19T18:04:09.966Z,100574.16
2018-04-19T18:06:48.548Z,100580.03
2018-04-19T18:09:27.450Z,100584.47
2018-04-19T18:12:10.371Z,100582.78
2018-04-19T18:14:50.315Z,100578.17
2018-04-19T18:17:29.150Z,100583.75
2018-04-19T18:20:07.733Z,100588.38
2018-04-19T18:22:47.806Z,100586.16
2018-04-19T18:25:30.880Z,100580.38
2018-04-19T18:28:11.040Z,100588.34
2018-04-19T18:30:56.003Z,100591.27
2018-04-19T18:33:34.362Z,100596.53
2018-04-19T18:36:12.659Z,100598.88
2018-04-19T18:38:53.801Z,100599.02
2018-04-19T18:41:32.178Z,100595.33
2018-04-19T18:44:10.717Z,100593.30
2018-04-19T18:46:51.936Z,100596.92
2018-04-19T18:49:30.694Z,100598.62
2018-04-19T18:52:15.525Z,100603.72
2018-04-19T19:02:56.127Z,100602.22
2018-04-19T19:05:52.384Z,100606.58
2018-04-19T19:08:35.980Z,100605.20
2018-04-19T19:11:26.468Z,100606.50
2018-04-19T19:14:07.794Z,100609.98
2018-04-19T19:16:58.847Z,100610.77
2018-04-19T19:20:18.656Z,100610.00
2018-04-19T19:23:08.352Z,100609.20
2018-04-19T19:25:56.152Z,100609.20
2018-04-19T19:31:34.771Z,100605.41
2018-04-19T19:37:19.147Z,100615.31
2018-04-19T19:42:58.275Z,100612.06
2018-04-19T19:45:51.230Z,100609.40
2018-04-19T19:48:34.154Z,100605.03
2018-04-19T19:51:26.167Z,100610.00
2018-04-19T19:54:16.238Z,100603.22
2018-04-19T19:57:09.732Z,100603.04
2018-04-19T20:00:07.064Z,100602.36
2018-04-19T20:07:58.075Z,100602.45
2018-04-19T20:10:47.386Z,100607.69
2018-04-19T20:13:26.395Z,100604.73
2018-04-19T20:16:05.802Z,100599.57
2018-04-19T20:21:42.195Z,100604.16
2018-04-19T20:24:24.792Z,100606.07
2018-04-19T20:27:05.183Z,100604.41
2018-04-19T20:29:44.367Z,100604.06
2018-04-19T20:32:24.874Z,100600.58
2018-04-19T20:35:03.965Z,100601.93
2018-04-19T20:37:43.121Z,100603.73
2018-04-19T20:40:23.831Z,100599.94
2018-04-19T20:43:02.271Z,100600.89
2018-04-19T20:45:42.309Z,100599.77
2018-04-19T20:48:21.238Z,100594.59
2018-04-19T20:51:00.664Z,100594.02
2018-04-19T20:53:44.592Z,100594.05
2018-04-19T20:56:27.617Z,100596.30
2018-04-19T20:59:08.705Z,100592.53
2018-04-19T21:01:49.620Z,100587.76
2018-04-19T21:04:28.255Z,100590.34
2018-04-19T21:07:07.859Z,100589.03
2018-04-19T21:09:47.909Z,100586.94
2018-04-19T21:12:28.001Z,100588.19
2018-04-19T21:15:08.921Z,100588.16
2018-04-19T21:17:48.665Z,100588.33
2018-04-19T21:20:31.305Z,100584.92
2018-04-19T21:23:10.729Z,100588.63
2018-04-19T21:25:49.716Z,100594.02
2018-04-19T21:28:33.930Z,100588.02
2018-04-19T21:31:13.342Z,100588.81
2018-04-19T21:33:56.841Z,100588.56
2018-04-19T21:36:36.033Z,100585.58
2018-04-19T21:39:15.281Z,100579.73
2018-04-19T21:41:55.799Z,100584.98
2018-04-19T21:44:34.968Z,100584.09
2018-04-19T21:47:14.894Z,100577.97
2018-04-19T21:49:54.264Z,100573.54
2018-04-19T21:52:32.864Z,100574.80
2018-04-19T21:55:16.491Z,100570.82
2018-04-19T21:57:55.001Z,100574.16
2018-04-19T22:00:33.322Z,100567.82
2018-04-19T22:03:16.437Z,100565.95
2018-04-19T22:05:54.756Z,100566.47
2018-04-19T22:08:34.524Z,100567.34
2018-04-19T22:11:17.409Z,100562.65
2018-04-19T22:13:57.205Z,100560.84
2018-04-19T22:16:35.828Z,100553.62
2018-04-19T22:19:22.135Z,100563.09
2018-04-19T22:22:00.811Z,100555.37
2018-04-19T22:24:39.631Z,100556.28
2018-04-19T22:27:20.307Z,100562.09
2018-04-19T22:30:00.339Z,100561.05
2018-04-19T22:32:39.669Z,100557.30
2018-04-19T22:35:20.667Z,100553.25
2018-04-19T22:37:59.351Z,100553.03
2018-04-19T22:40:38.075Z,100544.41
2018-04-19T22:43:20.277Z,100549.44
2018-04-19T22:45:58.964Z,100553.39
2018-04-19T22:48:37.482Z,100556.45
2018-04-19T22:51:18.737Z,100555.87
2018-04-19T22:53:57.653Z,100555.30
2018-04-19T22:56:36.997Z,100561.97
2018-04-19T22:59:17.370Z,100558.22
2018-04-19T23:01:56.061Z,100554.15
2018-04-19T23:04:35.108Z,100559.44
2018-04-19T23:07:14.875Z,100560.84
2018-04-19T23:09:54.040Z,100549.83
2018-04-19T23:12:33.775Z,100557.17
2018-04-19T23:15:16.219Z,100554.16
2018-04-19T23:17:56.305Z,100558.09
2018-04-19T23:20:37.863Z,100555.32
2018-04-19T23:23:17.536Z,100556.32
2018-04-19T23:25:57.617Z,100552.50
2018-04-19T23:28:45.434Z,100555.95
2018-04-19T23:31:25.435Z,100554.80
2018-04-19T23:34:04.113Z,100550.45
2018-04-19T23:36:47.091Z,100545.90
2018-04-19T23:39:26.056Z,100554.14
2018-04-19T23:42:04.573Z,100549.34
2018-04-19T23:44:48.088Z,100546.08
2018-04-19T23:47:27.432Z,100551.30
2018-04-19T23:50:06.292Z,100548.94
2018-04-19T23:52:47.768Z,100547.91
2018-04-19T23:55:25.990Z,100544.95
2018-04-19T23:58:06.125Z,100545.87
